Time;durP1;ratioP1;P1;durP2;ratioP2;P2;SDS_P1;SDS_P2;PMS_P1;PMS_P2;Temp;Humidity;BMP_temperature;BMP_pressure;BME280_temperature;BME280_humidity;BME280_pressure;Samples;Min_cycle;Max_cycle;Signal;HPM_P1;HPM_P2
2022/09/12 00:01:16;;;;;;;;;;;;;;;21.95;83.02;96701.64;587153;241;65086;-69
2022/09/12 00:03:43;;;;;;;;;;;;;;;21.97;82.99;96705.94;587192;241;66734;-69
2022/09/12 00:06:28;;;;;;;;;;;;;;;21.95;82.95;96701.64;587174;241;66517;-69
2022/09/12 00:08:57;;;;;;;;;;;;;;;21.95;82.92;96698.97;586947;241;65122;-68
2022/09/12 00:11:25;;;;;;;;;;;;;;;21.96;82.86;96699.77;587200;241;66711;-68
2022/09/12 00:13:54;;;;;;;;;;;;;;;21.96;82.88;96699.77;587236;241;64276;-68
2022/09/12 00:16:22;;;;;;;;;;;;;;;21.95;82.81;96698.18;587259;241;65059;-68
2022/09/12 00:18:51;;;;;;;;;;;;;;;21.97;82.81;96692.56;586857;241;63905;-68
2022/09/12 00:21:19;;;;;;;;;;;;;;;21.95;82.82;96690.95;585293;242;66401;-68
2022/09/12 00:23:46;;;;;;;;;;;;;;;21.97;82.80;96684.53;585247;242;65422;-69
2022/09/12 00:26:14;;;;;;;;;;;;;;;21.95;82.79;96687.48;585264;242;66947;-68
2022/09/12 00:28:42;;;;;;;;;;;;;;;21.95;82.78;96690.95;585296;242;64284;-68
2022/09/12 00:31:11;;;;;;;;;;;;;;;21.95;82.77;96687.48;585319;242;63061;-68
2022/09/12 00:33:38;;;;;;;;;;;;;;;21.95;82.76;96688.27;585255;242;66407;-68
2022/09/12 00:36:07;;;;;;;;;;;;;;;21.95;82.77;96685.59;585286;242;66276;-68
2022/09/12 00:38:37;;;;;;;;;;;;;;;21.95;82.80;96690.95;585252;242;62977;-68
2022/09/12 00:41:05;;;;;;;;;;;;;;;21.95;82.79;96682.12;585237;242;68681;-69
2022/09/12 00:43:40;;;;;;;;;;;;;;;21.95;82.80;96682.92;585314;242;64521;-68
2022/09/12 00:46:09;;;;;;;;;;;;;;;21.95;82.78;96679.45;585250;242;65063;-68
2022/09/12 00:48:38;;;;;;;;;;;;;;;21.94;82.77;96684.02;585111;242;66842;-69
2022/09/12 00:51:05;;;;;;;;;;;;;;;21.94;82.78;96686.69;585140;242;66512;-69
2022/09/12 00:53:33;;;;;;;;;;;;;;;21.95;82.78;96685.59;585263;242;65536;-69
2022/09/12 00:56:01;;;;;;;;;;;;;;;21.95;82.74;96687.48;585257;242;66709;-67
2022/09/12 00:58:30;;;;;;;;;;;;;;;21.95;82.75;96680.24;585298;242;64491;-67
2022/09/12 01:00:58;;;;;;;;;;;;;;;21.94;82.76;96683.22;585264;242;65107;-69
2022/09/12 01:03:30;;;;;;;;;;;;;;;21.94;82.75;96677.87;585246;242;65211;-68
2022/09/12 01:06:14;;;;;;;;;;;;;;;21.94;82.76;96681.34;585276;242;64362;-68
2022/09/12 01:08:43;;;;;;;;;;;;;;;21.94;82.71;96686.69;584935;242;62994;-68
2022/09/12 01:11:12;;;;;;;;;;;;;;;21.94;82.74;96692.04;585291;242;66727;-68
2022/09/12 01:13:39;;;;;;;;;;;;;;;21.94;82.72;96689.36;585276;242;64796;-68
2022/09/12 01:16:07;;;;;;;;;;;;;;;21.94;82.72;96692.04;585245;242;65022;-68
2022/09/12 01:18:43;;;;;;;;;;;;;;;21.94;82.75;96692.04;585220;242;66869;-68
2022/09/12 01:21:29;;;;;;;;;;;;;;;21.94;82.75;96691.25;585270;242;66367;-68
2022/09/12 01:24:13;;;;;;;;;;;;;;;21.94;82.71;96696.59;585247;242;65087;-68
2022/09/12 01:26:54;;;;;;;;;;;;;;;21.94;82.68;96691.25;584428;242;64576;-68
2022/09/12 01:29:32;;;;;;;;;;;;;;;21.93;82.70;96693.13;584869;242;66918;-68
2022/09/12 01:32:16;;;;;;;;;;;;;;;21.94;82.69;96686.69;584995;242;63236;-69
2022/09/12 01:34:48;;;;;;;;;;;;;;;21.94;82.70;96688.57;585163;242;66691;-69
2022/09/12 01:37:17;;;;;;;;;;;;;;;21.94;82.69;96685.89;585105;242;64815;-68
2022/09/12 01:39:49;;;;;;;;;;;;;;;21.93;82.70;96679.75;585121;242;63170;-68
2022/09/12 01:42:27;;;;;;;;;;;;;;;21.93;82.67;96679.75;585090;242;65115;-68
2022/09/12 01:44:56;;;;;;;;;;;;;;;21.94;82.68;96684.02;585109;242;64853;-68
2022/09/12 01:47:28;;;;;;;;;;;;;;;21.94;82.65;96680.55;585147;242;63115;-68
2022/09/12 01:50:09;;;;;;;;;;;;;;;21.94;82.67;96681.34;584408;242;64797;-68
2022/09/12 01:52:44;;;;;;;;;;;;;;;21.93;82.66;96682.42;584947;242;66783;-68
2022/09/12 01:55:13;;;;;;;;;;;;;;;21.93;82.66;96679.75;585000;242;63046;-68
2022/09/12 01:57:42;;;;;;;;;;;;;;;21.93;82.65;96685.11;585187;242;64730;-68
2022/09/12 02:00:11;;;;;;;;;;;;;;;21.93;82.66;96677.08;585139;242;64377;-68
2022/09/12 02:02:46;;;;;;;;;;;;;;;21.93;82.67;96668.23;585379;242;37256;-68
2022/09/12 02:05:21;;;;;;;;;;;;;;;21.93;82.63;96679.75;585227;242;64670;-68
2022/09/12 02:07:50;;;;;;;;;;;;;;;21.93;82.63;96669.05;585173;242;66813;-68
2022/09/12 02:10:19;;;;;;;;;;;;;;;21.93;82.62;96676.25;584961;242;63060;-68
2022/09/12 02:12:51;;;;;;;;;;;;;;;21.93;82.62;96674.41;585208;242;64814;-68
2022/09/12 02:15:20;;;;;;;;;;;;;;;21.92;82.60;96667.44;584990;242;66955;-68
2022/09/12 02:17:49;;;;;;;;;;;;;;;21.94;82.60;96669.84;585251;242;65061;-68
2022/09/12 02:20:21;;;;;;;;;;;;;;;21.93;82.59;96661.03;586688;241;64598;-68
2022/09/12 02:22:50;;;;;;;;;;;;;;;21.94;82.58;96669.84;587178;241;66560;-68
2022/09/12 02:25:19;;;;;;;;;;;;;;;21.93;82.58;96669.05;587153;241;65044;-68
2022/09/12 02:27:48;;;;;;;;;;;;;;;21.93;82.56;96679.75;587153;241;64785;-68
2022/09/12 02:30:18;;;;;;;;;;;;;;;21.92;82.55;96661.30;587182;241;65066;-68
2022/09/12 02:32:51;;;;;;;;;;;;;;;21.93;82.52;96668.23;587146;241;65144;-68
2022/09/12 02:35:26;;;;;;;;;;;;;;;21.93;82.54;96673.58;587153;241;67112;-68
2022/09/12 02:38:01;;;;;;;;;;;;;;;21.92;82.51;96670.11;587164;241;64804;-68
2022/09/12 02:40:29;;;;;;;;;;;;;;;21.92;82.54;96672.00;587115;241;65050;-68
2022/09/12 02:42:57;;;;;;;;;;;;;;;21.93;82.55;96673.58;587162;241;64828;-68
2022/09/12 02:45:25;;;;;;;;;;;;;;;21.93;82.58;96668.23;587202;241;66926;-68
2022/09/12 02:47:57;;;;;;;;;;;;;;;21.91;82.60;96665.86;587146;241;65052;-68
2022/09/12 02:50:25;;;;;;;;;;;;;;;21.93;82.63;96670.91;587051;241;66729;-68
2022/09/12 02:52:59;;;;;;;;;;;;;;;21.93;82.62;96678.93;587167;241;64764;-68
2022/09/12 02:55:26;;;;;;;;;;;;;;;21.92;82.60;96678.14;587069;241;65121;-69
2022/09/12 02:57:53;;;;;;;;;;;;;;;21.91;82.56;96671.20;587169;241;67231;-68
2022/09/12 03:00:22;;;;;;;;;;;;;;;21.91;82.55;96676.56;587191;241;64795;-68
2022/09/12 03:02:54;;;;;;;;;;;;;;;21.93;82.59;96678.93;587151;241;65103;-68
2022/09/12 03:05:23;;;;;;;;;;;;;;;21.91;82.56;96676.56;587170;241;66891;-68
2022/09/12 03:08:04;;;;;;;;;;;;;;;21.91;82.53;96671.20;587153;241;66796;-68
2022/09/12 03:10:33;;;;;;;;;;;;;;;21.91;82.56;96671.20;586873;241;63016;-68
2022/09/12 03:13:08;;;;;;;;;;;;;;;21.90;82.62;96674.95;587209;241;65672;-68
2022/09/12 03:15:44;;;;;;;;;;;;;;;21.91;82.63;96676.56;587204;241;66997;-68
2022/09/12 03:18:18;;;;;;;;;;;;;;;21.91;82.61;96681.12;587124;241;65102;-68
2022/09/12 03:20:59;;;;;;;;;;;;;;;21.91;82.61;96686.47;585250;241;66979;-68
2022/09/12 03:23:37;;;;;;;;;;;;;;;21.91;82.62;96681.91;585200;242;66924;-68
2022/09/12 03:26:12;;;;;;;;;;;;;;;21.90;82.65;96685.64;585214;242;65326;-68
2022/09/12 03:28:41;;;;;;;;;;;;;;;21.90;82.65;96682.97;585132;242;66906;-68
2022/09/12 03:31:16;;;;;;;;;;;;;;;21.90;82.65;96680.30;585255;242;66862;-68
2022/09/12 03:33:44;;;;;;;;;;;;;;;21.90;82.65;96680.30;585091;242;63103;-69
2022/09/12 03:36:19;;;;;;;;;;;;;;;21.90;82.66;96682.97;585228;242;66900;-68
2022/09/12 03:38:47;;;;;;;;;;;;;;;21.90;82.65;96682.97;585172;242;64305;-68
2022/09/12 03:41:14;;;;;;;;;;;;;;;21.89;82.63;96684.06;585208;242;65064;-69
2022/09/12 03:43:42;;;;;;;;;;;;;;;21.90;82.68;96684.86;585222;242;67114;-69
2022/09/12 03:46:10;;;;;;;;;;;;;;;21.90;82.68;96688.32;585208;242;67127;-68
2022/09/12 03:48:37;;;;;;;;;;;;;;;21.89;82.68;96694.77;585215;242;64949;-68
2022/09/12 03:51:06;;;;;;;;;;;;;;;21.90;82.74;96684.86;585215;242;66761;-69
2022/09/12 03:53:34;;;;;;;;;;;;;;;21.90;82.73;96691.00;585208;242;64640;-68
2022/09/12 03:56:02;;;;;;;;;;;;;;;21.90;82.76;96704.38;585193;242;63248;-68
2022/09/12 03:58:30;;;;;;;;;;;;;;;21.90;82.74;96695.55;585184;242;64956;-68
2022/09/12 04:00:58;;;;;;;;;;;;;;;21.90;82.75;96704.38;585193;242;66847;-68
2022/09/12 04:03:25;;;;;;;;;;;;;;;21.89;82.73;96697.44;585221;242;65056;-68
2022/09/12 04:05:53;;;;;;;;;;;;;;;21.90;82.74;96700.91;585178;242;66758;-68
2022/09/12 04:08:20;;;;;;;;;;;;;;;21.90;82.72;96693.67;585230;242;64800;-68
2022/09/12 04:10:48;;;;;;;;;;;;;;;21.90;82.76;96699.02;585188;242;65092;-68
2022/09/12 04:13:15;;;;;;;;;;;;;;;21.90;82.75;96698.23;585205;242;65143;-68
2022/09/12 04:15:43;;;;;;;;;;;;;;;21.91;82.75;96703.31;585204;242;66873;-68
2022/09/12 04:18:10;;;;;;;;;;;;;;;21.89;82.76;96705.47;585196;242;65045;-68
2022/09/12 04:20:38;;;;;;;;;;;;;;;21.90;82.76;96700.91;586950;241;67013;-68
2022/09/12 04:23:05;;;;;;;;;;;;;;;21.89;82.76;96697.44;587185;241;66813;-68
2022/09/12 04:25:33;;;;;;;;;;;;;;;21.89;82.75;96700.11;587169;241;63252;-68
2022/09/12 04:28:01;;;;;;;;;;;;;;;21.89;82.72;96705.47;587157;241;66689;-68
2022/09/12 04:30:28;;;;;;;;;;;;;;;21.90;82.76;96700.91;587149;241;64496;-68
2022/09/12 04:32:56;;;;;;;;;;;;;;;21.89;82.75;96700.11;587171;241;65108;-68
2022/09/12 04:35:23;;;;;;;;;;;;;;;21.89;82.73;96705.47;587191;241;64553;-69
2022/09/12 04:37:51;;;;;;;;;;;;;;;21.90;82.73;96711.61;587165;241;64491;-68
2022/09/12 04:40:18;;;;;;;;;;;;;;;21.88;82.69;96706.56;587160;241;65077;-69
2022/09/12 04:42:46;;;;;;;;;;;;;;;21.89;82.69;96712.70;587159;241;66679;-68
2022/09/12 04:45:13;;;;;;;;;;;;;;;21.89;82.69;96721.52;587148;241;66532;-68
2022/09/12 04:47:41;;;;;;;;;;;;;;;21.90;82.64;96719.64;587185;241;63032;-68
2022/09/12 04:50:08;;;;;;;;;;;;;;;21.89;82.67;96721.52;587150;241;64525;-68
2022/09/12 04:52:36;;;;;;;;;;;;;;;21.89;82.64;96718.84;587156;241;66573;-66
2022/09/12 04:55:03;;;;;;;;;;;;;;;21.90;82.66;96727.66;587144;241;65095;-66
2022/09/12 04:57:31;;;;;;;;;;;;;;;21.89;82.65;96724.19;587182;241;66978;-66
2022/09/12 04:59:58;;;;;;;;;;;;;;;21.89;82.64;96726.87;587173;241;67043;-67
2022/09/12 05:02:26;;;;;;;;;;;;;;;21.90;82.62;96730.34;587190;241;63014;-67
2022/09/12 05:04:53;;;;;;;;;;;;;;;21.89;82.62;96720.73;587173;241;65700;-67
2022/09/12 05:07:21;;;;;;;;;;;;;;;21.88;82.65;96722.61;587146;241;66858;-67
2022/09/12 05:09:48;;;;;;;;;;;;;;;21.88;82.64;96727.96;587155;241;65014;-67
2022/09/12 05:12:16;;;;;;;;;;;;;;;21.89;82.63;96716.17;587201;241;64778;-67
2022/09/12 05:14:45;;;;;;;;;;;;;;;21.89;82.62;96726.08;587176;241;64805;-67
2022/09/12 05:17:13;;;;;;;;;;;;;;;21.89;82.59;96728.75;587180;241;63055;-67
2022/09/12 05:19:40;;;;;;;;;;;;;;;21.88;82.58;96727.14;587138;241;64281;-66
2022/09/12 05:22:08;;;;;;;;;;;;;;;21.89;82.57;96732.22;587147;241;66840;-69
2022/09/12 05:24:38;;;;;;;;;;;;;;;21.88;82.61;96727.96;587192;241;63001;-67
2022/09/12 05:27:05;;;;;;;;;;;;;;;21.88;82.58;96730.63;587180;241;65175;-69
2022/09/12 05:29:32;;;;;;;;;;;;;;;21.88;82.65;96730.63;587170;241;64968;-67
2022/09/12 05:32:00;;;;;;;;;;;;;;;21.89;82.59;96728.75;587177;241;65457;-67
2022/09/12 05:34:28;;;;;;;;;;;;;;;21.88;82.62;96727.96;587148;241;66956;-67
2022/09/12 05:36:55;;;;;;;;;;;;;;;21.89;82.63;96734.10;587179;241;66863;-67
2022/09/12 05:39:23;;;;;;;;;;;;;;;21.88;82.61;96733.31;587196;241;65169;-68
2022/09/12 05:41:50;;;;;;;;;;;;;;;21.88;82.60;96735.98;587187;241;64740;-68
2022/09/12 05:44:18;;;;;;;;;;;;;;;21.88;82.63;96735.16;587155;241;64493;-67
2022/09/12 05:46:49;;;;;;;;;;;;;;;21.88;82.62;96724.46;587171;241;65111;-67
2022/09/12 05:49:15;;;;;;;;;;;;;;;21.88;82.62;96735.98;587065;241;66965;-67
2022/09/12 05:51:44;;;;;;;;;;;;;;;21.88;82.61;96735.98;587207;241;64817;-69
2022/09/12 05:54:14;;;;;;;;;;;;;;;21.87;82.63;96729.02;587155;241;65091;-66
2022/09/12 05:56:43;;;;;;;;;;;;;;;21.88;82.60;96735.16;587154;241;66925;-66
2022/09/12 05:59:14;;;;;;;;;;;;;;;21.88;82.62;96732.48;587132;241;65617;-72
2022/09/12 06:01:43;;;;;;;;;;;;;;;21.88;82.65;96730.63;586862;241;63202;-73
2022/09/12 06:04:11;;;;;;;;;;;;;;;21.87;82.61;96734.38;587193;241;67157;-70
2022/09/12 06:06:45;;;;;;;;;;;;;;;21.87;82.71;96722.87;587186;241;66492;-70
2022/09/12 06:09:09;;;;;;;;;;;;;;;21.86;82.77;96724.77;586900;241;62994;-69
2022/09/12 06:11:39;;;;;;;;;;;;;;;21.87;82.73;96725.55;587106;241;64850;-70
2022/09/12 06:14:07;;;;;;;;;;;;;;;21.86;82.38;96732.00;587132;241;66990;-69
2022/09/12 06:16:35;;;;;;;;;;;;;;;21.88;82.06;96724.46;587156;241;63045;-64
2022/09/12 06:19:05;;;;;;;;;;;;;;;21.87;82.72;96712.97;581548;241;67052;-66
2022/09/12 06:21:36;;;;;;;;;;;;;;;21.88;82.62;96719.11;578676;245;67054;-67
2022/09/12 06:24:04;;;;;;;;;;;;;;;21.88;82.57;96721.79;578664;245;65121;-68
2022/09/12 06:26:32;;;;;;;;;;;;;;;21.88;82.70;96719.94;578711;245;65632;-66
2022/09/12 06:29:00;;;;;;;;;;;;;;;21.88;82.75;96722.61;578646;245;66864;-65
2022/09/12 06:31:29;;;;;;;;;;;;;;;21.89;82.77;96729.55;578705;245;63015;-65
2022/09/12 06:33:58;;;;;;;;;;;;;;;21.90;82.90;96724.98;578653;245;64656;-67
2022/09/12 06:36:27;;;;;;;;;;;;;;;21.90;82.85;96722.31;578658;245;64833;-68
2022/09/12 06:38:56;;;;;;;;;;;;;;;21.90;82.97;96725.77;578588;245;65624;-66
2022/09/12 06:41:24;;;;;;;;;;;;;;;21.90;82.93;96727.66;578638;245;65000;-67
2022/09/12 06:43:52;;;;;;;;;;;;;;;21.91;81.11;96723.92;578683;245;64902;-67
2022/09/12 06:46:20;;;;;;;;;;;;;;;21.91;82.19;96721.25;578695;245;63007;-65
2022/09/12 06:48:47;;;;;;;;;;;;;;;21.91;82.50;96732.74;578654;245;67114;-65
2022/09/12 06:51:15;;;;;;;;;;;;;;;21.93;82.70;96727.09;578659;245;64559;-65
2022/09/12 06:53:44;;;;;;;;;;;;;;;21.92;82.74;96731.65;578641;245;65175;-66
2022/09/12 06:56:12;;;;;;;;;;;;;;;21.93;82.84;96729.77;578691;245;66876;-67
2022/09/12 06:58:40;;;;;;;;;;;;;;;21.92;82.74;96728.19;578640;243;64846;-66
2022/09/12 07:01:12;;;;;;;;;;;;;;;21.93;82.71;96730.59;578617;245;65222;-67
2022/09/12 07:03:40;;;;;;;;;;;;;;;21.93;80.97;96727.91;578623;245;64745;-65
2022/09/12 07:06:12;;;;;;;;;;;;;;;21.94;81.95;96726.82;578581;245;64834;-65
2022/09/12 07:08:39;;;;;;;;;;;;;;;21.93;81.87;96730.59;573710;245;68543;-67
2022/09/12 07:11:21;;;;;;;;;;;;;;;21.95;81.67;96724.94;573738;245;70419;-68
2022/09/12 07:13:50;;;;;;;;;;;;;;;21.94;81.64;96729.49;578601;245;66859;-66
2022/09/12 07:16:17;;;;;;;;;;;;;;;21.93;81.68;96725.23;578656;245;63046;-64
2022/09/12 07:18:46;;;;;;;;;;;;;;;21.96;81.75;96723.84;578802;244;64598;-68
2022/09/12 07:21:14;;;;;;;;;;;;;;;21.95;80.85;96731.08;580506;244;66599;-65
2022/09/12 07:23:42;;;;;;;;;;;;;;;21.96;81.71;96729.20;580549;244;65121;-66
2022/09/12 07:26:11;;;;;;;;;;;;;;;21.96;82.04;96734.55;580558;244;66943;-65
2022/09/12 07:28:39;;;;;;;;;;;;;;;21.95;82.04;96725.73;580514;244;67178;-64
2022/09/12 07:31:08;;;;;;;;;;;;;;;21.95;81.85;96741.78;580478;244;63161;-64
2022/09/12 07:33:36;;;;;;;;;;;;;;;21.95;81.85;96744.45;580539;244;67056;-64
2022/09/12 07:36:05;;;;;;;;;;;;;;;21.95;81.83;96744.45;580533;244;64837;-67
2022/09/12 07:38:33;;;;;;;;;;;;;;;21.95;81.77;96733.75;580572;244;63081;-66
2022/09/12 07:41:00;;;;;;;;;;;;;;;21.95;81.74;96735.64;580521;244;67058;-66
2022/09/12 07:43:28;;;;;;;;;;;;;;;21.95;81.71;96736.42;580509;244;64556;-66
2022/09/12 07:45:56;;;;;;;;;;;;;;;21.95;81.68;96730.28;580583;241;62965;-66
2022/09/12 07:48:23;;;;;;;;;;;;;;;21.95;81.65;96741.78;580828;244;64447;-66
2022/09/12 07:50:58;;;;;;;;;;;;;;;21.95;81.52;96736.42;580870;244;67044;-67
2022/09/12 07:53:26;;;;;;;;;;;;;;;21.95;81.38;96744.45;580693;244;62874;-66
2022/09/12 07:55:55;;;;;;;;;;;;;;;21.95;80.13;96747.13;580847;244;67402;-66
2022/09/12 07:58:23;;;;;;;;;;;;;;;21.95;81.50;96736.42;580828;244;64769;-66
2022/09/12 08:00:50;;;;;;;;;;;;;;;21.97;80.93;96727.34;580727;244;63092;-69
2022/09/12 08:03:18;;;;;;;;;;;;;;;21.95;80.94;96728.41;580828;244;66996;-67
2022/09/12 08:05:46;;;;;;;;;;;;;;;21.97;81.05;96735.37;580862;244;66902;-67
2022/09/12 08:08:13;;;;;;;;;;;;;;;21.97;81.19;96730.02;580818;244;65074;-70
2022/09/12 08:10:41;;;;;;;;;;;;;;;21.97;81.32;96735.37;580822;244;64989;-66
2022/09/12 08:13:09;;;;;;;;;;;;;;;21.97;81.32;96735.37;580828;244;66798;-67
2022/09/12 08:15:36;;;;;;;;;;;;;;;21.97;81.34;96744.19;580790;244;63013;-67
2022/09/12 08:18:04;;;;;;;;;;;;;;;21.97;81.47;96730.02;580813;244;64857;-67
2022/09/12 08:20:31;;;;;;;;;;;;;;;21.97;81.46;96728.12;580801;244;64737;-66
2022/09/12 08:22:59;;;;;;;;;;;;;;;21.97;81.50;96727.34;580838;244;62933;-66
2022/09/12 08:25:27;;;;;;;;;;;;;;;21.96;81.43;96721.17;580822;244;67608;-65
2022/09/12 08:27:55;;;;;;;;;;;;;;;21.97;81.42;96730.02;580841;241;64821;-67
2022/09/12 08:30:22;;;;;;;;;;;;;;;21.98;81.36;96724.36;580897;244;63039;-66
2022/09/12 08:32:50;;;;;;;;;;;;;;;21.97;81.14;96719.31;580908;244;67024;-67
2022/09/12 08:35:17;;;;;;;;;;;;;;;21.97;81.02;96719.31;580913;244;64423;-67
2022/09/12 08:37:45;;;;;;;;;;;;;;;21.95;80.99;96712.35;580908;244;65063;-66
2022/09/12 08:40:17;;;;;;;;;;;;;;;21.95;81.06;96707.00;580903;244;66743;-65
2022/09/12 08:42:49;;;;;;;;;;;;;;;21.95;81.21;96696.30;580852;244;66873;-66
2022/09/12 08:45:21;;;;;;;;;;;;;;;21.96;80.97;96702.44;580947;244;65019;-68
2022/09/12 08:47:49;;;;;;;;;;;;;;;21.97;80.59;96701.37;580744;244;64558;-66
2022/09/12 08:50:18;;;;;;;;;;;;;;;22.00;80.17;96710.72;580902;244;64412;-65
2022/09/12 08:52:58;;;;;;;;;;;;;;;22.01;80.52;96710.41;580900;244;64941;-66
2022/09/12 08:55:29;;;;;;;;;;;;;;;22.04;80.57;96711.73;580923;244;66737;-66
2022/09/12 08:57:59;;;;;;;;;;;;;;;22.04;80.69;96703.70;580898;244;66859;-67
2022/09/12 09:00:31;;;;;;;;;;;;;;;22.05;80.64;96707.98;580876;244;65199;-69
2022/09/12 09:03:06;;;;;;;;;;;;;;;22.06;80.60;96701.54;580705;244;64360;-66
2022/09/12 09:05:37;;;;;;;;;;;;;;;22.04;79.40;96701.02;580863;244;64797;-71
2022/09/12 09:08:25;;;;;;;;;;;;;;;22.02;79.69;96703.20;580647;244;62845;-68
2022/09/12 09:11:01;;;;;;;;;;;;;;;22.02;80.19;96708.56;580651;244;65192;-66
2022/09/12 09:16:25;;;;;;;;;;;;;;;22.01;80.64;96698.92;580815;244;63824;-66
2022/09/12 09:19:06;;;;;;;;;;;;;;;22.00;80.76;96689.31;580435;244;66806;-67
2022/09/12 09:21:47;;;;;;;;;;;;;;;21.98;80.81;96681.55;576937;245;47618;-66
2022/09/12 10:00:37;;;;;;;;;;;;;;;21.97;81.10;96689.88;579050;245;39814;-66
2022/09/12 10:03:12;;;;;;;;;;;;;;;21.97;81.15;96684.53;575968;246;64725;-66
2022/09/12 10:05:47;;;;;;;;;;;;;;;21.96;75.35;96670.33;575952;246;67280;-68
2022/09/12 10:08:26;;;;;;;;;;;;;;;22.01;77.35;96669.48;575990;246;65343;-67
2022/09/12 10:10:55;;;;;;;;;;;;;;;22.03;78.29;96676.14;576033;246;65159;-68
2022/09/12 10:13:40;;;;;;;;;;;;;;;22.03;78.49;96667.33;575682;246;68149;-68
2022/09/12 10:16:13;;;;;;;;;;;;;;;22.05;78.93;96670.52;576003;246;67206;-68
2022/09/12 10:18:41;;;;;;;;;;;;;;;22.06;79.23;96674.78;575510;246;65280;-66
2022/09/12 10:21:17;;;;;;;;;;;;;;;22.06;79.47;96680.92;576069;246;65172;-68
2022/09/12 10:23:46;;;;;;;;;;;;;;;22.07;79.68;96676.36;576064;246;64017;-68
2022/09/12 10:26:16;;;;;;;;;;;;;;;22.08;79.79;96686.00;576130;246;48690;-75
2022/09/12 10:28:46;;;;;;;;;;;;;;;22.08;79.87;96686.00;576081;246;67079;-68
2022/09/12 10:31:15;;;;;;;;;;;;;;;22.09;80.03;96687.59;576042;246;65020;-67
2022/09/12 10:33:45;;;;;;;;;;;;;;;22.08;80.03;96681.44;576067;246;63092;-67
2022/09/12 10:36:14;;;;;;;;;;;;;;;22.10;79.88;96686.52;576055;246;67533;-65
2022/09/12 10:38:43;;;;;;;;;;;;;;;22.09;80.01;96683.02;576058;246;65060;-65
2022/09/12 10:41:11;;;;;;;;;;;;;;;22.10;80.11;96681.17;575891;246;63040;-68
2022/09/12 10:43:41;;;;;;;;;;;;;;;22.10;80.25;96673.94;576081;246;65127;-68
2022/09/12 10:46:16;;;;;;;;;;;;;;;22.11;80.26;96672.84;576064;246;65035;-68
2022/09/12 10:48:44;;;;;;;;;;;;;;;22.11;80.48;96670.16;576070;246;65292;-68
2022/09/12 10:51:16;;;;;;;;;;;;;;;22.11;80.55;96667.48;575978;246;67346;-68
2022/09/12 10:53:45;;;;;;;;;;;;;;;22.12;80.65;96670.95;575695;246;64877;-68
2022/09/12 10:56:14;;;;;;;;;;;;;;;22.12;80.64;96668.28;576051;246;65033;-67
2022/09/12 10:58:49;;;;;;;;;;;;;;;22.13;80.69;96669.89;575982;246;64931;-68
2022/09/12 11:01:21;;;;;;;;;;;;;;;22.12;80.92;96665.60;575989;245;65119;-67
2022/09/12 11:04:00;;;;;;;;;;;;;;;22.13;80.78;96672.56;575955;246;62846;-67
2022/09/12 11:06:32;;;;;;;;;;;;;;;22.13;80.85;96667.22;575139;244;65095;-67
2022/09/12 11:09:02;;;;;;;;;;;;;;;22.14;80.95;96669.59;575295;246;64791;-72
2022/09/12 11:11:31;;;;;;;;;;;;;;;22.13;80.98;96654.63;576053;246;65434;-66
2022/09/12 11:14:01;;;;;;;;;;;;;;;22.15;81.02;96676.55;575952;244;67224;-68
2022/09/12 11:16:30;;;;;;;;;;;;;;;22.15;81.05;96662.34;576035;246;64763;-66
2022/09/12 11:19:05;;;;;;;;;;;;;;;22.15;81.08;96665.84;575796;246;62947;-67
2022/09/12 11:21:34;;;;;;;;;;;;;;;22.14;80.99;96674.94;576054;246;67212;-68
2022/09/12 11:24:06;;;;;;;;;;;;;;;22.13;75.22;96664.54;575975;246;65438;-66
2022/09/12 11:26:44;;;;;;;;;;;;;;;22.13;76.92;96667.22;575950;245;65057;-66
2022/09/12 11:29:19;;;;;;;;;;;;;;;22.11;78.59;96658.67;575909;246;67944;-66
2022/09/12 11:31:51;;;;;;;;;;;;;;;22.10;79.60;96651.73;575850;246;65052;-65
2022/09/12 11:34:24;;;;;;;;;;;;;;;22.09;79.77;96655.48;575971;246;65127;-66
2022/09/12 11:37:09;;;;;;;;;;;;;;;22.09;79.96;96658.94;575321;246;64956;-67
2022/09/12 11:39:40;;;;;;;;;;;;;;;22.07;80.12;96674.51;576087;246;67203;-67
2022/09/12 11:42:09;;;;;;;;;;;;;;;22.08;80.36;96667.27;576089;246;64151;-67
2022/09/12 11:44:37;;;;;;;;;;;;;;;22.07;80.51;96668.34;575979;246;64966;-67
2022/09/12 11:47:09;;;;;;;;;;;;;;;22.06;80.64;96656.84;576020;246;67091;-64
2022/09/12 11:49:38;;;;;;;;;;;;;;;22.06;80.67;96653.38;575941;244;65096;-67
2022/09/12 11:52:11;;;;;;;;;;;;;;;22.05;80.82;96636.53;575951;244;67512;-69
2022/09/12 11:54:49;;;;;;;;;;;;;;;22.06;80.99;96634.64;576074;246;67118;-68
2022/09/12 11:57:18;;;;;;;;;;;;;;;22.05;81.12;96631.17;576030;246;63036;-65
2022/09/12 11:59:53;;;;;;;;;;;;;;;22.05;81.24;96633.06;576046;246;65040;-66
2022/09/12 12:02:26;;;;;;;;;;;;;;;22.04;81.19;96631.45;576023;245;66878;-67
2022/09/12 12:05:08;;;;;;;;;;;;;;;22.05;81.15;96633.06;575963;246;65029;-66
2022/09/12 12:07:37;;;;;;;;;;;;;;;22.04;81.08;96642.95;576098;246;67283;-69
2022/09/12 12:10:05;;;;;;;;;;;;;;;22.05;81.16;96646.44;576025;244;64989;-66
2022/09/12 12:12:33;;;;;;;;;;;;;;;22.04;81.20;96645.62;576040;246;65082;-65
2022/09/12 12:15:00;;;;;;;;;;;;;;;22.04;81.32;96637.59;576033;246;67422;-65
2022/09/12 12:17:29;;;;;;;;;;;;;;;22.04;81.41;96629.56;576076;246;67725;-66
2022/09/12 12:19:58;;;;;;;;;;;;;;;22.04;81.61;96626.89;576066;246;63032;-66
2022/09/12 12:22:26;;;;;;;;;;;;;;;22.05;81.78;96622.36;575917;246;67270;-67
2022/09/12 12:24:55;;;;;;;;;;;;;;;22.05;81.87;96627.71;576107;246;67053;-68
2022/09/12 12:27:24;;;;;;;;;;;;;;;22.04;81.96;96621.53;574823;246;65134;-67
2022/09/12 12:29:52;;;;;;;;;;;;;;;22.05;81.96;96633.06;570823;246;67261;-67
2022/09/12 12:32:21;;;;;;;;;;;;;;;22.04;82.06;96631.45;576046;246;66804;-65
2022/09/12 12:34:48;;;;;;;;;;;;;;;22.04;82.08;96626.09;576062;246;65193;-65
2022/09/12 12:37:20;;;;;;;;;;;;;;;22.04;82.16;96634.13;576047;246;67282;-66
2022/09/12 12:39:54;;;;;;;;;;;;;;;22.04;82.19;96626.09;576033;246;65346;-65
2022/09/12 12:42:33;;;;;;;;;;;;;;;22.05;82.24;96622.36;575637;245;62965;-65
2022/09/12 12:45:11;;;;;;;;;;;;;;;22.05;82.32;96633.06;576066;246;67370;-65
2022/09/12 12:47:40;;;;;;;;;;;;;;;22.05;82.35;96630.39;576060;246;67143;-65
2022/09/12 12:50:12;;;;;;;;;;;;;;;22.05;82.37;96627.71;576018;246;65122;-65
2022/09/12 12:52:44;;;;;;;;;;;;;;;22.06;82.41;96621.27;576101;246;65161;-65
2022/09/12 12:55:16;;;;;;;;;;;;;;;22.05;82.42;96611.66;576059;246;66775;-65
2022/09/12 12:57:47;;;;;;;;;;;;;;;22.04;82.51;96612.72;576195;241;62888;-65
2022/09/12 13:00:16;;;;;;;;;;;;;;;22.04;82.55;96618.07;576085;246;66909;-65
2022/09/12 13:03:02;;;;;;;;;;;;;;;22.04;82.56;96618.07;577978;245;66835;-65
2022/09/12 13:05:49;;;;;;;;;;;;;;;22.04;82.56;96623.42;578953;245;63135;-68
2022/09/12 13:08:30;;;;;;;;;;;;;;;22.04;82.60;96616.19;578975;245;48029;-64
2022/09/12 13:11:05;;;;;;;;;;;;;;;22.05;82.61;96619.69;579006;245;64724;-65
2022/09/12 13:13:40;;;;;;;;;;;;;;;22.05;82.63;96622.36;578982;245;65280;-67
2022/09/12 13:16:09;;;;;;;;;;;;;;;22.04;82.61;96624.22;578913;245;67188;-64
2022/09/12 13:18:44;;;;;;;;;;;;;;;22.04;82.68;96623.42;578212;245;66877;-66
2022/09/12 13:21:13;;;;;;;;;;;;;;;22.03;82.70;96622.63;578913;245;65271;-65
2022/09/12 13:23:41;;;;;;;;;;;;;;;22.04;82.72;96634.13;578805;245;65197;-65
2022/09/12 13:26:10;;;;;;;;;;;;;;;22.04;82.74;96631.45;578979;245;65061;-65
2022/09/12 13:28:38;;;;;;;;;;;;;;;22.05;82.73;96627.71;578939;245;65138;-65
2022/09/12 13:31:07;;;;;;;;;;;;;;;22.04;82.75;96626.89;578906;245;67310;-66
2022/09/12 13:33:39;;;;;;;;;;;;;;;22.04;82.78;96618.86;578959;245;67064;-65
2022/09/12 13:36:11;;;;;;;;;;;;;;;22.06;82.59;96618.59;578914;242;64960;-65
2022/09/12 13:38:49;;;;;;;;;;;;;;;22.05;82.71;96625.03;578942;245;65267;-65
2022/09/12 13:41:18;;;;;;;;;;;;;;;22.05;82.64;96630.39;579001;245;65132;-65
2022/09/12 13:43:47;;;;;;;;;;;;;;;22.04;82.68;96632.24;578766;245;65117;-64